Time;durP1;ratioP1;P1;durP2;ratioP2;P2;SDS_P1;SDS_P2;PMS_P1;PMS_P2;Temp;Humidity;BMP_temperature;BMP_pressure;BME280_temperature;BME280_humidity;BME280_pressure;Samples;Min_cycle;Max_cycle;Signal;HPM_P1;HPM_P2
2023/04/28 00:01:44;;;;;;;33.17;17.88;;;;;;;;;;5040079;28;20025;-55
2023/04/28 00:04:10;;;;;;;37.40;18.95;;;;;;;;;;5040191;28;20069;-55
2023/04/28 00:06:36;;;;;;;35.50;18.05;;;;;;;;;;5022249;28;20036;-55
2023/04/28 00:09:01;;;;;;;36.30;19.13;;;;;;;;;;5022177;28;20067;-55
2023/04/28 00:11:26;;;;;;;35.40;17.83;;;;;;;;;;5039931;28;20390;-55
2023/04/28 00:13:51;;;;;;;35.40;18.77;;;;;;;;;;5040042;28;20013;-55
2023/04/28 00:16:17;;;;;;;38.47;19.23;;;;;;;;;;5039969;28;20072;-55
2023/04/28 00:18:43;;;;;;;35.88;19.38;;;;;;;;;;5039974;28;20101;-56
2023/04/28 00:21:08;;;;;;;35.78;17.48;;;;;;;;;;5039927;28;20074;-56
2023/04/28 00:23:34;;;;;;;31.38;17.23;;;;;;;;;;5039881;28;20478;-56
2023/04/28 00:25:59;;;;;;;36.40;18.20;;;;;;;;;;5039888;28;20030;-56
2023/04/28 00:28:24;;;;;;;34.78;18.52;;;;;;;;;;5039824;28;20498;-56
2023/04/28 00:30:50;;;;;;;38.03;17.73;;;;;;;;;;5039785;28;20025;-56
2023/04/28 00:33:15;;;;;;;33.58;17.63;;;;;;;;;;5039767;28;20034;-56
2023/04/28 00:35:41;;;;;;;35.35;17.42;;;;;;;;;;5039769;28;20017;-56
2023/04/28 00:38:06;;;;;;;32.55;17.30;;;;;;;;;;5022173;28;20383;-56
2023/04/28 00:40:36;;;;;;;32.63;17.15;;;;;;;;;;5038516;28;20068;-56
2023/04/28 00:43:01;;;;;;;34.80;16.97;;;;;;;;;;5039641;28;20026;-55
2023/04/28 00:45:27;;;;;;;32.65;16.20;;;;;;;;;;5038439;28;20029;-55
2023/04/28 00:47:53;;;;;;;34.85;17.17;;;;;;;;;;5039736;28;20486;-55
2023/04/28 00:50:18;;;;;;;30.55;16.55;;;;;;;;;;5039564;28;20065;-55
2023/04/28 00:52:44;;;;;;;31.80;16.70;;;;;;;;;;5021862;28;20053;-55
2023/04/28 00:55:10;;;;;;;30.20;16.02;;;;;;;;;;5039568;28;20053;-54
2023/04/28 00:57:36;;;;;;;36.28;16.98;;;;;;;;;;5039499;28;20128;-54
2023/04/28 01:00:02;;;;;;;33.17;16.42;;;;;;;;;;5039596;28;20554;-54
2023/04/28 01:02:28;;;;;;;33.95;16.77;;;;;;;;;;5038278;28;20095;-54
2023/04/28 01:04:55;;;;;;;31.83;16.48;;;;;;;;;;5022162;28;20422;-54
2023/04/28 01:07:21;;;;;;;32.00;17.00;;;;;;;;;;5038263;28;20033;-54
2023/04/28 01:09:46;;;;;;;31.25;17.38;;;;;;;;;;5019789;28;20094;-54
2023/04/28 01:12:14;;;;;;;30.38;16.38;;;;;;;;;;5018660;28;20032;-54
2023/04/28 01:14:46;;;;;;;31.75;16.55;;;;;;;;;;5018662;28;20021;-55
2023/04/28 01:17:13;;;;;;;30.95;16.92;;;;;;;;;;5035389;28;20036;-55
2023/04/28 01:19:39;;;;;;;31.58;16.95;;;;;;;;;;5018396;28;20064;-55
2023/04/28 01:22:05;;;;;;;27.77;15.77;;;;;;;;;;5034927;28;20498;-54
2023/04/28 01:24:30;;;;;;;29.83;15.18;;;;;;;;;;5018420;28;20030;-54
2023/04/28 01:27:01;;;;;;;31.55;17.42;;;;;;;;;;5034903;28;20033;-54
2023/04/28 01:29:27;;;;;;;30.67;16.02;;;;;;;;;;5035943;28;20033;-54
2023/04/28 01:31:52;;;;;;;27.58;15.38;;;;;;;;;;5018276;28;20463;-54
2023/04/28 01:34:18;;;;;;;28.67;15.52;;;;;;;;;;5018255;28;20479;-55
2023/04/28 01:36:43;;;;;;;28.73;16.70;;;;;;;;;;5035912;28;20121;-55
2023/04/28 01:39:09;;;;;;;33.28;17.15;;;;;;;;;;5018158;28;20022;-55
2023/04/28 01:41:34;;;;;;;30.65;16.75;;;;;;;;;;5018085;28;20533;-55
2023/04/28 01:44:00;;;;;;;30.88;16.73;;;;;;;;;;5035756;28;20029;-55
2023/04/28 01:46:25;;;;;;;31.63;17.10;;;;;;;;;;5035737;28;20030;-55
2023/04/28 01:48:51;;;;;;;28.83;15.98;;;;;;;;;;5035651;28;20022;-55
2023/04/28 01:51:16;;;;;;;30.00;15.50;;;;;;;;;;5017832;28;20034;-55
2023/04/28 01:53:41;;;;;;;28.20;14.98;;;;;;;;;;5017906;28;20033;-55
2023/04/28 01:56:07;;;;;;;28.05;14.32;;;;;;;;;;5017736;28;20464;-55
2023/04/28 01:58:33;;;;;;;26.00;13.90;;;;;;;;;;5017618;28;20041;-55
2023/04/28 02:00:59;;;;;;;25.92;13.60;;;;;;;;;;5017619;28;20049;-55
2023/04/28 02:03:24;;;;;;;27.70;14.43;;;;;;;;;;5017631;28;20029;-55
2023/04/28 02:05:50;;;;;;;27.77;14.40;;;;;;;;;;5017592;28;20475;-54
2023/04/28 02:08:16;;;;;;;27.73;15.45;;;;;;;;;;5017624;28;20053;-55
2023/04/28 02:10:41;;;;;;;30.48;15.02;;;;;;;;;;5033924;28;20033;-55
2023/04/28 02:13:07;;;;;;;24.60;13.98;;;;;;;;;;5017538;28;20386;-55
2023/04/28 02:15:34;;;;;;;25.08;13.13;;;;;;;;;;5035194;28;20573;-55
2023/04/28 02:17:59;;;;;;;21.00;12.07;;;;;;;;;;5035086;28;20036;-55
2023/04/28 02:20:25;;;;;;;25.50;13.68;;;;;;;;;;5034596;28;20089;-55
2023/04/28 02:22:51;;;;;;;28.20;14.30;;;;;;;;;;5035004;28;20029;-53
2023/04/28 02:25:16;;;;;;;26.17;13.38;;;;;;;;;;5035023;28;20036;-54
2023/04/28 02:27:41;;;;;;;25.63;13.68;;;;;;;;;;5034974;28;20033;-54
2023/04/28 02:30:07;;;;;;;28.05;13.55;;;;;;;;;;5035067;28;20109;-54
2023/04/28 02:32:32;;;;;;;24.67;13.18;;;;;;;;;;5034901;28;20012;-54
2023/04/28 02:34:58;;;;;;;25.70;13.23;;;;;;;;;;5034887;28;20395;-54
2023/04/28 02:37:23;;;;;;;27.40;13.68;;;;;;;;;;5017204;28;20026;-54
2023/04/28 02:39:50;;;;;;;22.10;11.40;;;;;;;;;;5017026;28;20029;-54
2023/04/28 02:42:15;;;;;;;20.13;12.52;;;;;;;;;;5016964;28;20048;-54
2023/04/28 02:44:40;;;;;;;27.00;12.57;;;;;;;;;;5034596;28;20029;-54
2023/04/28 02:47:06;;;;;;;24.95;13.15;;;;;;;;;;5033354;28;20033;-54
2023/04/28 02:49:31;;;;;;;21.60;11.80;;;;;;;;;;5016835;28;20497;-54
2023/04/28 02:51:56;;;;;;;17.63;9.68;;;;;;;;;;5016819;28;20430;-54
2023/04/28 02:54:28;;;;;;;18.08;9.90;;;;;;;;;;5016708;28;20474;-54
2023/04/28 02:56:54;;;;;;;16.77;9.88;;;;;;;;;;5032993;28;20594;-54
2023/04/28 02:59:20;;;;;;;20.10;10.75;;;;;;;;;;5016616;28;20037;-54
2023/04/28 03:01:46;;;;;;;23.20;10.60;;;;;;;;;;5016877;28;20044;-54
2023/04/28 03:04:12;;;;;;;14.50;9.80;;;;;;;;;;5016593;28;20071;-54
2023/04/28 03:06:37;;;;;;;18.25;10.85;;;;;;;;;;5034236;28;20061;-55
2023/04/28 03:09:03;;;;;;;19.70;10.50;;;;;;;;;;5032913;28;20095;-55
2023/04/28 03:11:28;;;;;;;19.92;9.93;;;;;;;;;;5016414;28;20108;-55
2023/04/28 03:13:54;;;;;;;19.73;10.18;;;;;;;;;;5016524;28;20064;-54
2023/04/28 03:16:20;;;;;;;19.58;10.63;;;;;;;;;;5016383;28;20017;-55
2023/04/28 03:18:45;;;;;;;20.92;10.75;;;;;;;;;;5000167;28;20025;-54
2023/04/28 03:21:10;;;;;;;20.00;11.02;;;;;;;;;;5034057;28;20078;-54
2023/04/28 03:23:36;;;;;;;21.77;11.43;;;;;;;;;;5033967;28;20045;-54
2023/04/28 03:26:01;;;;;;;23.98;11.70;;;;;;;;;;5016241;28;20026;-54
2023/04/28 03:28:26;;;;;;;26.25;14.02;;;;;;;;;;5016162;28;20531;-55
2023/04/28 03:30:52;;;;;;;22.70;11.32;;;;;;;;;;5016076;28;20032;-55
2023/04/28 03:33:18;;;;;;;23.25;10.98;;;;;;;;;;5015341;28;20030;-55
2023/04/28 03:35:43;;;;;;;20.40;11.85;;;;;;;;;;5016090;28;20045;-56
2023/04/28 03:38:09;;;;;;;25.90;13.00;;;;;;;;;;4999693;28;20071;-56
2023/04/28 03:40:35;;;;;;;29.23;14.52;;;;;;;;;;5016051;28;20033;-54
2023/04/28 03:43:10;;;;;;;27.15;15.07;;;;;;;;;;5034004;28;20033;-55
2023/04/28 03:45:41;;;;;;;25.38;13.80;;;;;;;;;;5015931;28;20120;-54
2023/04/28 03:48:07;;;;;;;34.13;14.57;;;;;;;;;;5016182;28;20029;-54
2023/04/28 03:50:32;;;;;;;30.35;14.93;;;;;;;;;;5015826;28;20034;-53
2023/04/28 03:52:58;;;;;;;43.58;17.42;;;;;;;;;;5032339;28;20116;-54
2023/04/28 03:55:24;;;;;;;46.53;16.85;;;;;;;;;;5032295;28;20120;-54
2023/04/28 03:57:50;;;;;;;48.88;17.77;;;;;;;;;;5015722;28;20053;-54
2023/04/28 04:00:16;;;;;;;45.08;16.88;;;;;;;;;;5015888;28;20194;-54
2023/04/28 04:02:44;;;;;;;41.42;15.80;;;;;;;;;;5015699;28;20090;-54
2023/04/28 04:05:09;;;;;;;36.20;14.93;;;;;;;;;;5015755;28;20030;-55
2023/04/28 04:07:34;;;;;;;36.08;14.40;;;;;;;;;;5015727;28;20032;-54
2023/04/28 04:10:00;;;;;;;38.35;14.63;;;;;;;;;;5015654;28;20041;-54
2023/04/28 04:12:25;;;;;;;32.80;14.02;;;;;;;;;;5033718;28;20026;-54
2023/04/28 04:14:50;;;;;;;33.78;13.07;;;;;;;;;;4996896;28;20475;-54
2023/04/28 04:17:17;;;;;;;27.55;12.10;;;;;;;;;;5015466;28;20033;-54
2023/04/28 04:19:42;;;;;;;25.38;11.60;;;;;;;;;;4999156;28;20036;-54
2023/04/28 04:22:09;;;;;;;21.77;11.00;;;;;;;;;;5015537;28;20487;-54
2023/04/28 04:24:35;;;;;;;24.77;11.60;;;;;;;;;;4999018;28;20029;-54
2023/04/28 04:27:01;;;;;;;25.40;12.25;;;;;;;;;;5015555;28;20068;-54
2023/04/28 04:29:34;;;;;;;20.23;11.07;;;;;;;;;;5015240;28;20029;-54
2023/04/28 04:32:05;;;;;;;22.85;10.75;;;;;;;;;;5015589;28;20091;-54
2023/04/28 04:34:31;;;;;;;22.30;11.32;;;;;;;;;;5015277;28;20025;-54
2023/04/28 04:36:57;;;;;;;24.15;11.90;;;;;;;;;;5013644;28;20068;-55
2023/04/28 04:39:22;;;;;;;21.08;11.02;;;;;;;;;;5014319;28;20029;-55
2023/04/28 04:41:47;;;;;;;24.80;12.30;;;;;;;;;;5014395;28;20365;-55
2023/04/28 04:44:29;;;;;;;27.17;13.00;;;;;;;;;;5015836;28;20030;-55
2023/04/28 04:46:55;;;;;;;24.88;11.93;;;;;;;;;;5018099;28;20033;-55
2023/04/28 04:49:21;;;;;;;23.63;11.88;;;;;;;;;;5017333;28;20029;-54
2023/04/28 04:51:46;;;;;;;22.13;11.27;;;;;;;;;;5017977;28;20037;-54
2023/04/28 04:54:11;;;;;;;25.00;11.43;;;;;;;;;;5017636;28;20025;-55
2023/04/28 04:56:38;;;;;;;24.05;11.93;;;;;;;;;;5017583;28;20030;-55
2023/04/28 04:59:04;;;;;;;20.52;11.02;;;;;;;;;;5017633;28;20394;-54
2023/04/28 05:01:47;;;;;;;21.75;11.73;;;;;;;;;;5017407;28;20111;-54
2023/04/28 05:04:14;;;;;;;20.95;10.75;;;;;;;;;;5017439;28;20476;-54
2023/04/28 05:06:39;;;;;;;16.70;9.95;;;;;;;;;;5000506;28;20109;-54
2023/04/28 05:09:05;;;;;;;16.48;9.75;;;;;;;;;;4998421;28;20156;-53
2023/04/28 05:11:31;;;;;;;17.75;9.05;;;;;;;;;;4997996;28;20033;-54
2023/04/28 05:13:56;;;;;;;16.75;9.25;;;;;;;;;;4998198;28;20041;-54
2023/04/28 05:16:22;;;;;;;14.20;8.70;;;;;;;;;;4998026;28;20026;-54
2023/04/28 05:19:09;;;;;;;12.32;7.60;;;;;;;;;;5016423;28;20576;-54
2023/04/28 05:21:35;;;;;;;14.23;7.40;;;;;;;;;;5016634;28;20054;-54
2023/04/28 05:24:01;;;;;;;11.23;6.85;;;;;;;;;;4998912;28;20034;-54
2023/04/28 05:26:27;;;;;;;10.63;6.38;;;;;;;;;;4998856;28;20025;-55
2023/04/28 05:28:56;;;;;;;11.60;6.57;;;;;;;;;;4999042;28;20112;-55
2023/04/28 05:31:21;;;;;;;11.82;6.57;;;;;;;;;;4998644;28;20441;-55
2023/04/28 05:33:47;;;;;;;9.88;6.40;;;;;;;;;;4998750;28;20025;-55
2023/04/28 05:36:15;;;;;;;11.25;6.22;;;;;;;;;;4998662;28;20013;-55
2023/04/28 05:38:41;;;;;;;10.40;6.60;;;;;;;;;;5016479;28;20026;-55
2023/04/28 05:41:06;;;;;;;9.25;6.70;;;;;;;;;;4998572;28;20038;-54
2023/04/28 05:43:31;;;;;;;10.00;6.45;;;;;;;;;;4998467;28;20037;-55
2023/04/28 05:45:57;;;;;;;7.97;6.00;;;;;;;;;;4998486;28;20076;-55
2023/04/28 05:48:22;;;;;;;9.05;6.13;;;;;;;;;;4998405;28;20423;-55
2023/04/28 05:50:48;;;;;;;6.60;5.22;;;;;;;;;;4998264;28;20034;-55
2023/04/28 05:53:13;;;;;;;15.02;6.40;;;;;;;;;;4998755;28;20425;-55
2023/04/28 05:55:38;;;;;;;10.50;6.53;;;;;;;;;;5014845;28;20022;-55
2023/04/28 05:58:04;;;;;;;8.55;6.13;;;;;;;;;;5014855;28;20038;-55
2023/04/28 06:00:30;;;;;;;11.98;6.60;;;;;;;;;;5014974;28;20034;-55
2023/04/28 06:02:58;;;;;;;8.77;5.93;;;;;;;;;;4997211;28;20049;-55
2023/04/28 06:05:25;;;;;;;10.77;6.72;;;;;;;;;;4996201;28;20468;-55
2023/04/28 06:07:52;;;;;;;8.70;5.68;;;;;;;;;;4996228;28;20369;-54
2023/04/28 06:10:19;;;;;;;9.40;5.50;;;;;;;;;;5013720;28;20042;-55
2023/04/28 06:12:44;;;;;;;9.70;6.00;;;;;;;;;;4997319;28;20101;-55
2023/04/28 06:15:09;;;;;;;10.50;5.72;;;;;;;;;;4996010;28;20444;-55
2023/04/28 06:17:35;;;;;;;9.35;5.97;;;;;;;;;;5013583;28;20559;-55
2023/04/28 06:20:00;;;;;;;9.52;6.07;;;;;;;;;;4995994;28;20030;-55
2023/04/28 06:22:25;;;;;;;9.32;5.82;;;;;;;;;;4996484;28;20526;-55
2023/04/28 06:24:51;;;;;;;8.40;5.80;;;;;;;;;;4996153;28;20061;-55
2023/04/28 06:27:20;;;;;;;9.77;6.15;;;;;;;;;;5002033;28;20475;-55
2023/04/28 06:29:47;;;;;;;8.10;5.60;;;;;;;;;;5010037;28;20068;-55
2023/04/28 06:32:13;;;;;;;8.38;5.50;;;;;;;;;;4995597;28;20030;-54
2023/04/28 06:34:38;;;;;;;7.50;4.80;;;;;;;;;;4996844;28;20089;-55
2023/04/28 06:37:04;;;;;;;6.63;4.88;;;;;;;;;;4998409;28;20032;-55
2023/04/28 06:39:30;;;;;;;8.02;4.60;;;;;;;;;;4997878;28;20018;-55
2023/04/28 06:41:56;;;;;;;6.30;4.75;;;;;;;;;;4997600;28;20124;-54
2023/04/28 06:44:24;;;;;;;8.48;4.90;;;;;;;;;;4997695;28;20030;-55
2023/04/28 06:46:50;;;;;;;10.32;5.10;;;;;;;;;;5015204;28;20033;-54
2023/04/28 06:49:15;;;;;;;8.00;4.38;;;;;;;;;;4997376;28;20026;-55
2023/04/28 06:51:40;;;;;;;6.30;4.20;;;;;;;;;;4997281;28;20053;-55
2023/04/28 06:54:06;;;;;;;8.10;4.22;;;;;;;;;;4997231;28;20057;-55
2023/04/28 06:56:32;;;;;;;6.78;4.30;;;;;;;;;;4981301;28;20026;-55
2023/04/28 06:58:58;;;;;;;6.57;4.40;;;;;;;;;;4997149;28;20026;-54
2023/04/28 07:01:23;;;;;;;6.40;4.90;;;;;;;;;;4997124;28;20038;-55
2023/04/28 07:03:49;;;;;;;5.63;3.72;;;;;;;;;;5014967;28;20073;-55
2023/04/28 07:06:15;;;;;;;5.78;3.50;;;;;;;;;;5014883;28;20042;-54
2023/04/28 07:08:41;;;;;;;4.05;3.13;;;;;;;;;;5014777;28;20109;-55
2023/04/28 07:11:06;;;;;;;4.03;3.17;;;;;;;;;;4997470;28;20535;-55
2023/04/28 07:13:31;;;;;;;6.75;3.03;;;;;;;;;;4997770;28;20018;-55
2023/04/28 07:15:57;;;;;;;4.28;3.13;;;;;;;;;;5014518;28;20376;-55
2023/04/28 07:18:22;;;;;;;4.18;3.17;;;;;;;;;;5014400;28;20034;-54
2023/04/28 07:20:47;;;;;;;3.70;2.63;;;;;;;;;;5014911;28;20052;-55
2023/04/28 07:23:13;;;;;;;3.60;2.78;;;;;;;;;;5014355;28;20454;-54
2023/04/28 07:25:40;;;;;;;3.65;2.60;;;;;;;;;;4997008;28;20038;-55
2023/04/28 07:28:06;;;;;;;3.42;2.58;;;;;;;;;;4996789;28;20120;-55
2023/04/28 07:30:31;;;;;;;3.30;2.78;;;;;;;;;;5014432;28;20057;-55
2023/04/28 07:32:58;;;;;;;4.35;2.50;;;;;;;;;;5014208;28;20495;-55
2023/04/28 07:35:23;;;;;;;4.03;2.45;;;;;;;;;;5014452;28;20476;-55
2023/04/28 07:37:49;;;;;;;6.65;2.80;;;;;;;;;;5014127;28;20105;-54
2023/04/28 07:40:15;;;;;;;5.88;3.28;;;;;;;;;;5014130;28;20028;-54
2023/04/28 07:42:40;;;;;;;5.05;2.58;;;;;;;;;;5014094;28;20038;-54
2023/04/28 07:45:06;;;;;;;3.08;2.30;;;;;;;;;;4996460;28;20361;-55
2023/04/28 07:47:31;;;;;;;3.88;2.50;;;;;;;;;;5014028;28;20524;-54
2023/04/28 07:49:57;;;;;;;2.97;2.63;;;;;;;;;;5031679;22;20060;-55
2023/04/28 07:52:43;;;;;;;2.72;1.92;;;;;;;;;;5063097;23;20140;-62
2023/04/28 07:55:08;;;;;;;3.92;2.70;;;;;;;;;;5055228;23;21066;-62
2023/04/28 07:57:34;;;;;;;3.03;2.33;;;;;;;;;;5047502;22;20068;-62
2023/04/28 08:00:01;;;;;;;4.18;2.80;;;;;;;;;;5062391;23;20499;-54
2023/04/28 08:02:26;;;;;;;4.88;2.80;;;;;;;;;;5062764;23;20050;-63
2023/04/28 08:04:51;;;;;;;4.00;2.65;;;;;;;;;;5015382;28;20037;-63
2023/04/28 08:07:17;;;;;;;4.53;2.90;;;;;;;;;;5033825;28;20027;-63
2023/04/28 08:09:46;;;;;;;4.13;2.65;;;;;;;;;;5033391;28;20127;-62
2023/04/28 08:12:11;;;;;;;2.58;2.30;;;;;;;;;;5033448;28;20392;-62
2023/04/28 08:14:36;;;;;;;3.38;2.40;;;;;;;;;;5033495;28;20017;-63
2023/04/28 08:17:01;;;;;;;2.63;2.42;;;;;;;;;;5033838;28;20061;-62
2023/04/28 08:19:27;;;;;;;6.13;2.70;;;;;;;;;;5035230;28;20029;-63
2023/04/28 08:21:52;;;;;;;4.55;2.47;;;;;;;;;;5019635;28;20021;-62
2023/04/28 08:24:17;;;;;;;3.08;2.35;;;;;;;;;;5037403;28;20484;-63
2023/04/28 08:26:43;;;;;;;2.75;2.50;;;;;;;;;;5037601;28;20036;-62
2023/04/28 08:29:08;;;;;;;2.95;2.42;;;;;;;;;;5020132;28;20022;-63
2023/04/28 08:31:33;;;;;;;3.10;2.20;;;;;;;;;;5037181;28;20129;-62
2023/04/28 08:33:59;;;;;;;4.22;2.25;;;;;;;;;;5037493;28;20079;-62
2023/04/28 08:36:25;;;;;;;4.00;2.38;;;;;;;;;;5037708;28;20026;-62
2023/04/28 08:38:51;;;;;;;4.20;2.15;;;;;;;;;;5037119;28;20100;-62
2023/04/28 08:41:18;;;;;;;3.15;2.78;;;;;;;;;;5037202;28;20025;-62
2023/04/28 08:43:44;;;;;;;6.63;3.10;;;;;;;;;;5019200;28;20029;-63
2023/04/28 08:46:10;;;;;;;4.57;2.15;;;;;;;;;;5037224;28;20033;-63
2023/04/28 08:48:39;;;;;;;2.28;2.08;;;;;;;;;;5036884;28;20087;-62
2023/04/28 08:51:05;;;;;;;5.10;2.08;;;;;;;;;;5037089;28;20086;-63
2023/04/28 08:53:33;;;;;;;4.40;2.50;;;;;;;;;;5037075;28;20033;-62
2023/04/28 08:56:00;;;;;;;4.47;3.05;;;;;;;;;;5036622;28;20025;-62
2023/04/28 08:58:25;;;;;;;3.28;2.55;;;;;;;;;;5019318;28;20038;-63
2023/04/28 09:00:51;;;;;;;2.63;2.30;;;;;;;;;;5036943;28;20040;-62
2023/04/28 09:03:17;;;;;;;3.88;2.50;;;;;;;;;;5036356;28;20095;-62
2023/04/28 09:05:42;;;;;;;6.07;3.30;;;;;;;;;;5036874;28;20061;-62
2023/04/28 09:08:08;;;;;;;2.80;2.58;;;;;;;;;;5037106;28;20030;-62
2023/04/28 09:10:33;;;;;;;6.50;2.92;;;;;;;;;;5018580;28;20037;-63
2023/04/28 09:12:58;;;;;;;2.80;2.53;;;;;;;;;;5036513;28;20040;-63
2023/04/28 09:15:27;;;;;;;4.55;3.00;;;;;;;;;;5018924;28;20037;-62
2023/04/28 09:17:53;;;;;;;3.10;2.42;;;;;;;;;;5036342;28;20049;-63
2023/04/28 09:20:19;;;;;;;3.88;2.42;;;;;;;;;;5036363;28;20459;-62
2023/04/28 09:22:44;;;;;;;2.30;2.08;;;;;;;;;;5036553;28;20464;-62
2023/04/28 09:25:10;;;;;;;4.63;2.88;;;;;;;;;;5036504;28;20063;-62
2023/04/28 09:27:35;;;;;;;4.97;2.65;;;;;;;;;;5036199;28;20416;-62
2023/04/28 09:30:02;;;;;;;4.55;3.47;;;;;;;;;;5035497;28;20060;-62
2023/04/28 09:32:29;;;;;;;3.47;2.40;;;;;;;;;;5017891;28;20468;-62
2023/04/28 09:34:58;;;;;;;2.42;2.13;;;;;;;;;;5036357;28;20033;-62
2023/04/28 09:37:24;;;;;;;3.05;2.58;;;;;;;;;;5036265;28;20037;-62
2023/04/28 09:39:51;;;;;;;4.63;2.08;;;;;;;;;;5036233;28;20037;-62
2023/04/28 09:42:35;;;;;;;5.45;2.70;;;;;;;;;;5018177;28;20132;-62
2023/04/28 09:45:02;;;;;;;3.92;2.78;;;;;;;;;;5034665;28;20383;-62
2023/04/28 09:47:27;;;;;;;3.38;2.85;;;;;;;;;;5035802;28;20028;-62
2023/04/28 09:49:57;;;;;;;3.35;2.28;;;;;;;;;;5035708;28;20392;-62
2023/04/28 09:52:23;;;;;;;2.45;2.15;;;;;;;;;;5036061;28;20032;-62
2023/04/28 09:54:50;;;;;;;3.70;2.90;;;;;;;;;;5035732;28;20065;-62
2023/04/28 09:57:16;;;;;;;5.47;3.40;;;;;;;;;;5035714;28;20024;-62
2023/04/28 09:59:44;;;;;;;2.63;2.20;;;;;;;;;;5035633;28;20033;-62
2023/04/28 10:02:09;;;;;;;5.32;2.50;;;;;;;;;;5035561;28;20108;-62
2023/04/28 10:04:35;;;;;;;3.10;1.98;;;;;;;;;;5035261;28;20119;-62
2023/04/28 10:07:00;;;;;;;3.95;2.20;;;;;;;;;;5035485;28;20036;-62
2023/04/28 10:09:27;;;;;;;2.88;2.35;;;;;;;;;;5034081;28;20037;-63
2023/04/28 10:11:52;;;;;;;2.55;2.22;;;;;;;;;;5035257;28;20033;-62
2023/04/28 10:14:18;;;;;;;2.97;2.38;;;;;;;;;;5035340;28;20491;-63
2023/04/28 10:16:44;;;;;;;3.70;2.63;;;;;;;;;;5034009;28;20029;-62
2023/04/28 10:19:09;;;;;;;6.25;3.03;;;;;;;;;;5035520;28;20068;-63
2023/04/28 10:21:39;;;;;;;5.40;2.65;;;;;;;;;;5035309;28;20061;-62
2023/04/28 10:24:10;;;;;;;6.25;3.25;;;;;;;;;;5035468;28;20091;-62
2023/04/28 10:26:55;;;;;;;3.67;2.60;;;;;;;;;;5033854;28;20100;-62
2023/04/28 10:29:24;;;;;;;3.83;3.08;;;;;;;;;;5035090;28;20095;-63
2023/04/28 10:32:09;;;;;;;3.80;2.72;;;;;;;;;;5035250;28;20120;-63
2023/04/28 10:34:34;;;;;;;2.88;2.25;;;;;;;;;;5035208;28;20076;-63
2023/04/28 10:37:01;;;;;;;1.65;1.55;;;;;;;;;;5033627;28;20061;-62
2023/04/28 10:39:26;;;;;;;3.97;2.03;;;;;;;;;;5035157;28;20084;-62
2023/04/28 10:41:52;;;;;;;4.93;2.55;;;;;;;;;;5034673;28;20045;-63
2023/04/28 10:44:29;;;;;;;4.60;2.50;;;;;;;;;;5035042;28;20025;-63
2023/04/28 10:47:05;;;;;;;3.58;2.28;;;;;;;;;;5035308;28;20112;-62
2023/04/28 10:49:49;;;;;;;4.82;2.72;;;;;;;;;;5034840;28;20052;-63
2023/04/28 10:52:36;;;;;;;3.53;2.28;;;;;;;;;;5034766;28;20060;-62
2023/04/28 10:55:20;;;;;;;3.40;1.73;;;;;;;;;;5035121;28;20034;-62
2023/04/28 10:58:08;;;;;;;2.75;1.75;;;;;;;;;;5034777;28;20026;-62
2023/04/28 11:00:33;;;;;;;4.53;2.28;;;;;;;;;;5034908;28;20044;-63
2023/04/28 11:02:58;;;;;;;5.35;2.53;;;;;;;;;;5034478;28;20053;-62
2023/04/28 11:05:27;;;;;;;3.65;2.28;;;;;;;;;;5034763;28;20030;-62
2023/04/28 11:08:11;;;;;;;3.00;2.55;;;;;;;;;;5034216;28;20471;-62
2023/04/28 11:10:55;;;;;;;3.25;2.22;;;;;;;;;;5034850;28;20029;-62
2023/04/28 11:13:24;;;;;;;3.63;2.28;;;;;;;;;;5034182;28;20026;-62
2023/04/28 11:16:01;;;;;;;2.40;2.20;;;;;;;;;;5034982;28;20032;-62
2023/04/28 11:18:27;;;;;;;2.28;2.08;;;;;;;;;;5034545;28;20040;-63
2023/04/28 11:20:55;;;;;;;4.93;2.90;;;;;;;;;;5034018;28;20033;-62
2023/04/28 11:23:21;;;;;;;4.90;2.45;;;;;;;;;;5034641;28;20456;-62
2023/04/28 11:25:53;;;;;;;2.30;1.75;;;;;;;;;;5033214;28;20113;-63
2023/04/28 11:28:19;;;;;;;3.55;1.98;;;;;;;;;;5033228;28;20025;-62
2023/04/28 11:30:45;;;;;;;2.50;2.40;;;;;;;;;;5032986;28;20113;-63
2023/04/28 11:33:10;;;;;;;3.33;1.73;;;;;;;;;;5033445;28;20112;-62
2023/04/28 11:35:40;;;;;;;2.25;2.03;;;;;;;;;;5033546;28;20392;-62
2023/04/28 11:38:05;;;;;;;4.53;2.67;;;;;;;;;;5033492;28;20120;-62
2023/04/28 11:40:30;;;;;;;2.75;2.40;;;;;;;;;;5015669;28;20112;-62
2023/04/28 11:42:57;;;;;;;4.63;2.58;;;;;;;;;;5033247;28;20029;-63
2023/04/28 11:45:26;;;;;;;2.83;2.33;;;;;;;;;;5015567;28;20033;-63
2023/04/28 11:47:51;;;;;;;4.47;2.03;;;;;;;;;;5033443;28;20152;-63
2023/04/28 11:50:33;;;;;;;5.47;3.20;;;;;;;;;;5033175;28;20523;-63
2023/04/28 11:52:59;;;;;;;3.53;2.50;;;;;;;;;;5032713;28;20029;-62
2023/04/28 11:55:27;;;;;;;3.38;2.85;;;;;;;;;;5032812;28;20052;-62
2023/04/28 11:58:11;;;;;;;2.58;1.98;;;;;;;;;;5032964;28;20041;-62
2023/04/28 12:00:36;;;;;;;2.30;2.10;;;;;;;;;;5033219;28;20040;-63
2023/04/28 12:03:07;;;;;;;2.25;2.05;;;;;;;;;;5033124;28;20037;-62
2023/04/28 12:05:34;;;;;;;3.00;2.03;;;;;;;;;;5032936;28;20065;-62
2023/04/28 12:08:00;;;;;;;3.78;2.28;;;;;;;;;;5014973;28;20040;-62
2023/04/28 12:10:25;;;;;;;5.57;3.20;;;;;;;;;;5033221;28;20116;-63
2023/04/28 12:12:51;;;;;;;4.78;2.90;;;;;;;;;;5015530;28;20112;-62
2023/04/28 12:15:16;;;;;;;2.45;2.25;;;;;;;;;;5033267;28;20022;-63
2023/04/28 12:17:42;;;;;;;4.13;2.92;;;;;;;;;;5032938;28;20029;-63
2023/04/28 12:20:07;;;;;;;3.55;2.83;;;;;;;;;;5015664;28;20018;-62
2023/04/28 12:22:49;;;;;;;5.45;2.70;;;;;;;;;;5033213;28;20102;-62
2023/04/28 12:25:16;;;;;;;3.33;2.22;;;;;;;;;;5033142;28;20037;-62
2023/04/28 12:27:57;;;;;;;2.28;1.95;;;;;;;;;;5032002;28;20033;-63
2023/04/28 12:30:22;;;;;;;3.08;2.03;;;;;;;;;;5032928;28;20045;-63
2023/04/28 12:32:48;;;;;;;2.88;2.60;;;;;;;;;;5033002;28;20021;-62
2023/04/28 12:35:13;;;;;;;2.25;2.05;;;;;;;;;;5032341;28;20456;-63
2023/04/28 12:37:40;;;;;;;5.53;2.30;;;;;;;;;;5033030;28;20045;-62
2023/04/28 12:40:06;;;;;;;3.35;1.65;;;;;;;;;;5032351;28;20464;-62
2023/04/28 12:42:33;;;;;;;2.10;1.90;;;;;;;;;;5032641;28;20028;-62
2023/04/28 12:44:58;;;;;;;2.78;2.25;;;;;;;;;;5032155;28;20047;-62
2023/04/28 12:47:23;;;;;;;3.33;2.97;;;;;;;;;;5032418;28;20113;-62
2023/04/28 12:49:51;;;;;;;4.53;2.63;;;;;;;;;;5032930;28;20392;-63
2023/04/28 12:52:17;;;;;;;3.55;3.10;;;;;;;;;;5032943;28;20032;-62
2023/04/28 12:54:45;;;;;;;5.95;2.92;;;;;;;;;;5032916;28;20029;-62
2023/04/28 12:57:12;;;;;;;3.22;2.85;;;;;;;;;;5032886;28;20448;-62
2023/04/28 12:59:37;;;;;;;4.13;2.97;;;;;;;;;;5032819;28;20025;-62
2023/04/28 13:02:03;;;;;;;2.35;2.03;;;;;;;;;;5031834;28;20385;-61
2023/04/28 13:04:28;;;;;;;4.20;2.80;;;;;;;;;;5032690;28;20095;-62
2023/04/28 13:06:53;;;;;;;3.65;2.72;;;;;;;;;;5036285;28;20036;-62
2023/04/28 13:09:19;;;;;;;4.82;2.20;;;;;;;;;;5018951;28;20503;-63
2023/04/28 13:11:44;;;;;;;2.38;2.13;;;;;;;;;;5018246;28;20411;-63
2023/04/28 13:14:10;;;;;;;3.03;1.90;;;;;;;;;;5036405;28;20475;-62
2023/04/28 13:16:35;;;;;;;4.47;2.25;;;;;;;;;;5035781;28;20030;-62
2023/04/28 13:19:02;;;;;;;4.18;2.78;;;;;;;;;;5035704;28;20434;-62
2023/04/28 13:21:27;;;;;;;3.42;2.67;;;;;;;;;;5036140;28;20029;-62
2023/04/28 13:23:53;;;;;;;2.40;2.22;;;;;;;;;;5036887;28;20048;-62
2023/04/28 13:26:19;;;;;;;2.92;2.67;;;;;;;;;;5036439;28;20038;-63
2023/04/28 13:28:47;;;;;;;2.75;2.40;;;;;;;;;;5036480;28;20097;-62
2023/04/28 13:31:13;;;;;;;3.20;2.25;;;;;;;;;;5036638;28;20057;-62
2023/04/28 13:33:38;;;;;;;2.17;2.00;;;;;;;;;;5034909;28;20064;-63
2023/04/28 13:36:04;;;;;;;4.28;2.40;;;;;;;;;;5034087;28;20017;-62
2023/04/28 13:38:29;;;;;;;3.17;2.20;;;;;;;;;;5034188;28;20035;-63
2023/04/28 13:40:54;;;;;;;3.03;1.95;;;;;;;;;;5034390;28;20549;-62
2023/04/28 13:43:20;;;;;;;3.15;2.85;;;;;;;;;;5032065;28;20044;-63
2023/04/28 13:45:45;;;;;;;6.97;2.47;;;;;;;;;;5035623;28;20022;-62
2023/04/28 13:48:11;;;;;;;3.25;2.55;;;;;;;;;;5035287;28;20048;-62
2023/04/28 13:50:37;;;;;;;3.90;2.53;;;;;;;;;;5035939;28;20017;-63
2023/04/28 13:53:02;;;;;;;4.97;2.78;;;;;;;;;;5036329;28;20031;-62
2023/04/28 13:55:28;;;;;;;4.03;2.47;;;;;;;;;;5017977;28;20021;-63
2023/04/28 13:57:54;;;;;;;4.35;2.05;;;;;;;;;;5035134;28;20372;-62
2023/04/28 14:00:20;;;;;;;5.25;2.10;;;;;;;;;;5034818;28;20067;-63
2023/04/28 14:02:48;;;;;;;3.70;2.60;;;;;;;;;;5035002;28;20040;-63
2023/04/28 14:05:13;;;;;;;5.43;2.55;;;;;;;;;;5034976;28;20037;-62
2023/04/28 14:07:39;;;;;;;3.13;2.35;;;;;;;;;;5035346;28;20044;-62
2023/04/28 14:10:04;;;;;;;4.00;2.38;;;;;;;;;;5035287;28;20509;-62
2023/04/28 14:12:30;;;;;;;4.63;2.33;;;;;;;;;;5035380;28;20018;-63
2023/04/28 14:14:55;;;;;;;4.20;2.47;;;;;;;;;;5034081;28;20025;-62
2023/04/28 14:17:21;;;;;;;3.53;2.22;;;;;;;;;;5033208;28;20472;-63
2023/04/28 14:19:46;;;;;;;3.88;2.22;;;;;;;;;;5034240;28;20100;-62
2023/04/28 14:22:11;;;;;;;2.85;2.33;;;;;;;;;;5016098;28;20120;-63
2023/04/28 14:24:37;;;;;;;3.47;2.38;;;;;;;;;;5033590;28;20021;-62
2023/04/28 14:27:03;;;;;;;2.67;2.15;;;;;;;;;;5034078;28;20069;-63
2023/04/28 14:29:28;;;;;;;4.43;2.53;;;;;;;;;;5033811;28;20013;-62
2023/04/28 14:31:54;;;;;;;7.18;2.95;;;;;;;;;;5034567;28;20037;-62